createdAt,value
2023-05-01T00:01:32.346Z,1.98
2023-05-01T00:03:59.227Z,2.28
2023-05-01T00:06:26.242Z,2.42
2023-05-01T00:08:52.930Z,2.10
2023-05-01T00:11:19.603Z,2.30
2023-05-01T00:47:08.882Z,2.67
2023-05-01T00:49:36.145Z,2.42
2023-05-01T00:52:03.027Z,2.20
2023-05-01T00:54:29.713Z,2.58
2023-05-01T00:56:56.514Z,2.50
2023-05-01T00:59:23.236Z,2.60
2023-05-01T01:01:50.811Z,2.58
2023-05-01T01:04:17.538Z,2.63
2023-05-01T01:06:47.519Z,2.47
2023-05-01T01:09:38.729Z,2.60
2023-05-01T01:12:08.186Z,2.50
2023-05-01T01:14:50.187Z,2.80
2023-05-01T01:20:31.611Z,2.53
2023-05-01T01:23:26.337Z,2.80
2023-05-01T01:26:32.093Z,2.55
2023-05-01T01:29:19.881Z,2.80
2023-05-01T01:32:15.402Z,2.65
2023-05-01T01:34:49.294Z,2.70
2023-05-01T01:37:49.874Z,2.90
2023-05-01T01:40:21.499Z,2.83
2023-05-01T01:42:55.374Z,2.85
2023-05-01T01:45:25.674Z,2.78
2023-05-01T01:47:54.036Z,2.67
2023-05-01T01:50:24.197Z,3.17
2023-05-01T01:52:53.227Z,2.72
2023-05-01T01:55:25.395Z,2.53
2023-05-01T01:57:52.788Z,3.13
2023-05-01T02:00:21.698Z,2.78
2023-05-01T02:02:49.611Z,3.20
2023-05-01T02:05:17.830Z,2.50
2023-05-01T02:07:48.510Z,3.28
2023-05-01T02:10:16.221Z,3.20
2023-05-01T02:12:48.054Z,2.60
2023-05-01T02:17:43.214Z,2.92
2023-05-01T02:20:12.660Z,2.92
2023-05-01T02:22:43.432Z,2.92
2023-05-01T02:25:12.937Z,2.88
2023-05-01T02:28:08.704Z,2.72
2023-05-01T02:30:35.951Z,2.53
2023-05-01T02:33:03.133Z,2.83
2023-05-01T02:35:29.859Z,2.85
2023-05-01T02:37:56.481Z,2.67
2023-05-01T02:40:24.079Z,2.75
2023-05-01T02:42:53.026Z,3.10
2023-05-01T02:45:22.101Z,3.08
2023-05-01T02:47:52.913Z,2.67
2023-05-01T02:50:20.165Z,2.78
2023-05-01T02:52:47.852Z,3.33
2023-05-01T02:55:15.229Z,3.65
2023-05-01T02:57:41.919Z,3.25
2023-05-01T03:00:10.023Z,3.40
2023-05-01T03:02:36.815Z,3.00
2023-05-01T03:05:03.802Z,3.40
2023-05-01T03:07:35.338Z,3.30
2023-05-01T03:10:07.832Z,3.20
2023-05-01T03:12:34.500Z,3.25
2023-05-01T03:15:01.109Z,3.40
2023-05-01T03:17:27.909Z,3.30
2023-05-01T03:19:54.972Z,3.72
2023-05-01T03:22:21.856Z,3.78
2023-05-01T03:24:49.670Z,3.40
2023-05-01T03:27:16.255Z,3.53
2023-05-01T03:29:42.933Z,3.50
2023-05-01T03:32:09.554Z,3.45
2023-05-01T03:34:36.288Z,3.20
2023-05-01T03:37:02.949Z,3.33
2023-05-01T03:39:29.557Z,3.53
2023-05-01T03:41:56.209Z,3.22
2023-05-01T03:44:22.867Z,3.90
2023-05-01T03:46:49.493Z,3.45
2023-05-01T03:49:16.059Z,3.20
2023-05-01T03:51:42.775Z,3.22
2023-05-01T03:54:09.362Z,3.33
2023-05-01T03:56:36.931Z,3.60
2023-05-01T03:59:04.019Z,3.65
2023-05-01T04:01:33.580Z,3.22
2023-05-01T04:04:00.382Z,4.00
2023-05-01T04:06:27.202Z,3.55
2023-05-01T04:08:54.074Z,3.53
2023-05-01T04:11:21.148Z,3.33
2023-05-01T04:13:47.808Z,3.55
2023-05-01T04:16:14.593Z,3.63
2023-05-01T04:18:41.316Z,3.75
2023-05-01T04:21:07.914Z,3.40
2023-05-01T04:23:34.536Z,3.72
2023-05-01T04:26:01.176Z,3.75
2023-05-01T04:28:30.901Z,4.32
2023-05-01T04:30:58.093Z,3.50
2023-05-01T04:33:24.784Z,3.50
2023-05-01T04:35:51.430Z,3.78
2023-05-01T04:38:18.035Z,3.35
2023-05-01T04:40:44.677Z,3.70
2023-05-01T04:43:11.711Z,3.53
2023-05-01T04:45:38.992Z,3.75
2023-05-01T04:48:06.033Z,3.40
2023-05-01T04:50:33.160Z,3.53
2023-05-01T04:52:59.775Z,3.60
2023-05-01T04:55:26.360Z,3.78
2023-05-01T04:57:52.972Z,3.65
2023-05-01T05:00:19.672Z,3.78
2023-05-01T05:02:47.217Z,3.80
2023-05-01T05:05:13.931Z,3.80
2023-05-01T05:07:41.041Z,3.33
2023-05-01T05:10:08.018Z,3.75
2023-05-01T05:12:34.607Z,3.35
2023-05-01T05:15:01.314Z,4.10
2023-05-01T05:17:27.941Z,3.45
2023-05-01T05:19:54.802Z,3.83
2023-05-01T05:22:21.973Z,3.67
2023-05-01T05:24:54.671Z,4.15
2023-05-01T05:27:21.600Z,3.67
2023-05-01T05:29:48.215Z,3.88
2023-05-01T05:32:14.887Z,3.63
2023-05-01T05:34:41.552Z,3.60
2023-05-01T05:37:08.570Z,4.00
2023-05-01T05:39:35.217Z,4.10
2023-05-01T05:42:03.596Z,4.22
2023-05-01T05:44:31.680Z,3.95
2023-05-01T05:46:58.293Z,3.78
2023-05-01T05:49:24.919Z,4.03
2023-05-01T05:51:51.688Z,4.60
2023-05-01T05:54:18.389Z,4.10
2023-05-01T05:56:45.052Z,4.05
2023-05-01T05:59:11.690Z,4.63
2023-05-01T06:01:39.107Z,4.78
2023-05-01T06:04:06.514Z,4.63
2023-05-01T06:06:34.200Z,5.50
2023-05-01T06:09:02.043Z,5.93
2023-05-01T06:11:29.253Z,5.90
2023-05-01T06:13:57.284Z,5.47
2023-05-01T06:16:23.989Z,4.70
2023-05-01T06:18:50.851Z,4.95
2023-05-01T06:21:17.507Z,4.55
2023-05-01T06:23:44.195Z,4.55
2023-05-01T06:26:10.775Z,4.63
2023-05-01T06:28:37.566Z,5.18
2023-05-01T06:31:04.376Z,4.47
2023-05-01T06:33:31.220Z,4.63
2023-05-01T06:35:59.853Z,4.75
2023-05-01T06:38:27.246Z,4.53
2023-05-01T06:40:53.996Z,4.53
2023-05-01T06:43:20.682Z,4.60
2023-05-01T06:45:47.282Z,4.40
2023-05-01T06:48:14.022Z,4.38
2023-05-01T06:50:40.700Z,4.40
2023-05-01T06:53:07.279Z,4.07
2023-05-01T06:55:35.857Z,4.18
2023-05-01T06:58:09.776Z,4.13
2023-05-01T07:00:48.932Z,4.43
2023-05-01T07:03:15.619Z,3.95
2023-05-01T07:05:42.319Z,4.32
2023-05-01T07:08:10.438Z,4.32
2023-05-01T07:10:38.258Z,4.55
2023-05-01T07:13:06.664Z,4.72
2023-05-01T07:15:34.243Z,4.57
2023-05-01T07:18:03.076Z,4.03
2023-05-01T07:20:30.126Z,4.50
2023-05-01T07:22:56.773Z,3.97
2023-05-01T07:25:23.538Z,4.47
2023-05-01T07:27:50.112Z,3.72
2023-05-01T07:30:16.786Z,4.03
2023-05-01T07:32:43.444Z,4.38
2023-05-01T07:35:10.196Z,5.00
2023-05-01T07:37:36.868Z,4.05
2023-05-01T07:40:03.903Z,4.82
2023-05-01T07:42:30.691Z,4.78
2023-05-01T07:44:57.328Z,4.53
2023-05-01T07:47:24.199Z,3.92
2023-05-01T07:49:51.016Z,4.28
2023-05-01T07:52:17.618Z,4.00
2023-05-01T07:54:49.767Z,5.88
2023-05-01T07:57:16.602Z,4.68
2023-05-01T07:59:43.274Z,4.15
2023-05-01T08:02:09.915Z,4.20
2023-05-01T08:04:36.714Z,4.20
2023-05-01T08:07:03.372Z,4.63
2023-05-01T08:09:29.952Z,4.15
2023-05-01T08:11:56.686Z,4.18
2023-05-01T08:14:23.336Z,4.88
2023-05-01T08:16:55.063Z,4.05
2023-05-01T08:21:48.387Z,4.70
2023-05-01T08:24:14.984Z,4.57
2023-05-01T08:26:41.660Z,3.88
2023-05-01T08:29:08.269Z,4.03
2023-05-01T08:31:37.828Z,4.38
2023-05-01T08:34:07.321Z,4.63
2023-05-01T08:36:34.316Z,4.13
2023-05-01T08:39:01.149Z,4.47
2023-05-01T08:41:29.016Z,3.92
2023-05-01T08:43:58.591Z,3.45
2023-05-01T08:46:46.267Z,4.00
2023-05-01T08:49:16.097Z,4.47
2023-05-01T08:51:47.137Z,4.25
2023-05-01T08:54:15.410Z,3.95
2023-05-01T08:56:46.522Z,4.65
2023-05-01T08:59:15.142Z,4.18
2023-05-01T09:01:43.602Z,4.10
2023-05-01T09:04:11.818Z,3.85
2023-05-01T09:06:38.586Z,4.22
2023-05-01T09:09:05.677Z,3.60
2023-05-01T09:11:32.668Z,4.35
2023-05-01T09:14:01.417Z,4.30
2023-05-01T09:16:29.484Z,4.07
2023-05-01T09:18:57.077Z,3.80
2023-05-01T09:21:25.667Z,3.40
2023-05-01T09:23:53.589Z,3.50
2023-05-01T09:26:21.896Z,3.55
2023-05-01T09:28:48.773Z,3.58
2023-05-01T09:31:29.253Z,3.40
2023-05-01T09:34:00.282Z,3.88
2023-05-01T09:36:29.797Z,3.67
2023-05-01T09:38:57.038Z,3.58
2023-05-01T09:41:24.076Z,3.38
2023-05-01T09:43:57.543Z,3.35
2023-05-01T09:46:25.857Z,3.88
2023-05-01T09:48:58.741Z,3.35
2023-05-01T09:51:30.592Z,3.78
2023-05-01T09:56:30.239Z,3.10
2023-05-01T09:58:58.732Z,2.72
2023-05-01T10:01:42.965Z,2.80
2023-05-01T10:04:09.992Z,2.47
2023-05-01T10:06:37.715Z,2.60
2023-05-01T10:09:06.948Z,2.55
2023-05-01T10:11:49.983Z,2.67
2023-05-01T10:14:16.725Z,2.83
2023-05-01T10:16:44.587Z,2.63
2023-05-01T10:19:11.926Z,3.00
2023-05-01T10:21:38.770Z,3.20
2023-05-01T10:24:06.452Z,2.67
2023-05-01T10:26:34.690Z,3.75
2023-05-01T10:29:02.214Z,3.25
2023-05-01T10:31:29.940Z,2.63
2023-05-01T10:33:56.780Z,3.05
2023-05-01T10:36:28.528Z,2.38
2023-05-01T10:38:55.204Z,3.13
2023-05-01T10:41:59.007Z,3.08
2023-05-01T10:44:27.128Z,4.05
2023-05-01T10:46:54.872Z,4.32
2023-05-01T10:49:22.136Z,4.30
2023-05-01T10:52:06.535Z,4.28
2023-05-01T10:54:33.501Z,3.83
2023-05-01T10:57:01.989Z,4.55
2023-05-01T11:00:01.873Z,4.45
2023-05-01T11:02:30.350Z,3.80
2023-05-01T11:04:57.234Z,4.18
2023-05-01T11:07:24.883Z,4.43
2023-05-01T11:09:57.578Z,4.28
2023-05-01T11:12:48.873Z,3.88
2023-05-01T11:15:32.404Z,4.20
2023-05-01T11:18:00.858Z,4.50
2023-05-01T11:20:29.085Z,4.40
2023-05-01T11:22:57.456Z,4.10
2023-05-01T11:25:25.457Z,4.32
2023-05-01T11:27:54.236Z,4.57
2023-05-01T11:30:21.522Z,4.05
2023-05-01T11:32:49.377Z,3.95
2023-05-01T11:35:28.108Z,3.60
2023-05-01T11:37:57.840Z,3.70
2023-05-01T11:40:29.305Z,3.75
2023-05-01T11:43:04.035Z,3.97
2023-05-01T11:45:31.396Z,3.53
2023-05-01T11:47:59.438Z,5.35
2023-05-01T11:50:38.193Z,5.90
2023-05-01T11:53:11.820Z,5.90
2023-05-01T11:55:38.833Z,5.97
2023-05-01T11:58:05.531Z,5.68
2023-05-01T12:00:39.719Z,5.20
2023-05-01T12:03:07.664Z,4.93
2023-05-01T12:05:37.353Z,5.03
2023-05-01T12:08:11.371Z,4.82
2023-05-01T12:10:39.944Z,5.55
2023-05-01T12:13:08.876Z,5.28
2023-05-01T12:15:37.478Z,4.78
2023-05-01T12:18:05.867Z,4.85
2023-05-01T12:20:37.794Z,5.30
2023-05-01T12:23:10.510Z,5.00
2023-05-01T12:25:39.341Z,5.20
2023-05-01T12:28:10.489Z,4.55
2023-05-01T12:30:38.083Z,5.22
2023-05-01T12:33:19.165Z,4.88
2023-05-01T12:35:47.591Z,5.13
2023-05-01T12:38:15.521Z,5.60
2023-05-01T12:40:56.626Z,5.15
2023-05-01T12:43:31.504Z,5.22
2023-05-01T12:45:58.750Z,5.45
2023-05-01T12:48:25.791Z,6.10
2023-05-01T12:50:55.750Z,5.22
2023-05-01T12:53:23.888Z,6.20
2023-05-01T12:55:56.332Z,5.55
2023-05-01T12:58:23.785Z,5.55
2023-05-01T13:00:56.300Z,5.80
2023-05-01T13:03:26.611Z,5.75
2023-05-01T13:06:00.157Z,5.60
2023-05-01T13:08:42.507Z,5.07
2023-05-01T13:11:14.099Z,5.95
2023-05-01T13:16:12.646Z,5.88
2023-05-01T13:18:50.609Z,6.38
2023-05-01T13:21:22.071Z,6.95
2023-05-01T13:23:58.535Z,7.05
2023-05-01T13:26:33.829Z,5.85
2023-05-01T13:29:04.309Z,5.03
2023-05-01T13:31:31.375Z,6.18
2023-05-01T13:33:59.386Z,5.65
2023-05-01T13:36:27.452Z,6.10
2023-05-01T13:38:56.610Z,5.32
2023-05-01T13:41:25.684Z,5.15
2023-05-01T13:43:54.046Z,5.65
2023-05-01T13:46:22.325Z,6.32
2023-05-01T13:48:49.699Z,5.82
2023-05-01T13:51:24.268Z,5.90
2023-05-01T13:53:53.462Z,6.05
2023-05-01T13:56:21.502Z,5.93
2023-05-01T13:58:48.287Z,5.57
2023-05-01T14:01:16.952Z,5.03
2023-05-01T14:03:43.824Z,5.18
2023-05-01T14:06:19.089Z,4.05
2023-05-01T14:08:47.930Z,5.20
2023-05-01T14:11:15.271Z,4.18
2023-05-01T14:13:46.457Z,4.18
2023-05-01T14:16:31.817Z,4.40
2023-05-01T14:18:58.711Z,3.17
2023-05-01T14:21:30.191Z,4.38
2023-05-01T14:26:26.678Z,4.38
2023-05-01T14:28:53.343Z,3.70
2023-05-01T14:31:28.795Z,3.25
2023-05-01T14:34:00.566Z,4.47
2023-05-01T14:36:28.682Z,3.92
2023-05-01T14:39:03.861Z,4.97
2023-05-01T14:41:31.479Z,4.20
2023-05-01T14:43:58.139Z,3.70
2023-05-01T14:46:30.079Z,4.15
2023-05-01T14:48:57.928Z,4.30
2023-05-01T14:51:24.663Z,3.92
2023-05-01T14:53:51.945Z,4.57
2023-05-01T14:56:18.818Z,4.15
2023-05-01T14:58:46.807Z,3.90
2023-05-01T15:01:14.334Z,4.15
2023-05-01T15:03:42.135Z,4.72
2023-05-01T15:06:09.510Z,3.95
2023-05-01T15:08:36.718Z,4.43
2023-05-01T15:11:03.482Z,4.40
2023-05-01T15:13:31.867Z,4.57
2023-05-01T15:15:59.030Z,4.18
2023-05-01T15:18:26.265Z,4.95
2023-05-01T15:20:53.125Z,5.68
2023-05-01T15:23:20.098Z,3.90
2023-05-01T15:25:47.739Z,3.88
2023-05-01T15:28:14.657Z,4.53
2023-05-01T15:30:45.739Z,4.35
2023-05-01T15:33:14.435Z,4.50
2023-05-01T15:35:42.280Z,4.63
2023-05-01T15:38:08.856Z,3.97
2023-05-01T15:40:35.575Z,4.35
2023-05-01T15:43:04.354Z,4.70
2023-05-01T15:45:31.979Z,4.50
2023-05-01T15:47:58.839Z,4.18
2023-05-01T15:50:25.734Z,5.43
2023-05-01T15:52:52.433Z,6.15
2023-05-01T15:55:19.502Z,4.93
2023-05-01T15:57:48.952Z,5.97
2023-05-01T16:00:17.109Z,6.57
2023-05-01T16:02:44.576Z,5.53
2023-05-01T16:05:14.183Z,10.55
2023-05-01T16:07:40.943Z,6.53
2023-05-01T16:10:11.351Z,8.23
2023-05-01T16:12:38.162Z,7.07
2023-05-01T16:15:05.792Z,11.68
2023-05-01T16:17:36.850Z,19.95
2023-05-01T16:20:09.586Z,12.82
2023-05-01T16:22:36.269Z,8.73
2023-05-01T16:25:03.969Z,10.63
2023-05-01T16:27:30.640Z,13.13
2023-05-01T16:29:57.614Z,9.73
2023-05-01T16:32:24.698Z,12.10
2023-05-01T16:34:51.346Z,10.57
2023-05-01T16:37:21.018Z,11.43
2023-05-01T16:39:48.486Z,8.40
2023-05-01T16:42:15.419Z,7.93
2023-05-01T16:44:42.108Z,7.43
2023-05-01T16:47:12.707Z,8.70
2023-05-01T16:49:46.463Z,11.30
2023-05-01T16:52:16.993Z,8.35
2023-05-01T16:54:43.602Z,7.82
2023-05-01T16:57:10.384Z,7.57
2023-05-01T16:59:37.776Z,8.93
2023-05-01T17:02:05.667Z,8.57
2023-05-01T17:04:32.535Z,8.98
2023-05-01T17:06:59.337Z,8.10
2023-05-01T17:09:26.998Z,11.05
2023-05-01T17:11:56.648Z,13.63
2023-05-01T17:14:24.039Z,9.55
2023-05-01T17:16:51.536Z,23.92
2023-05-01T17:19:20.206Z,12.95
2023-05-01T17:21:46.848Z,12.15
2023-05-01T17:24:13.911Z,66.57
2023-05-01T17:26:40.515Z,12.35
2023-05-01T17:29:07.194Z,29.35
2023-05-01T17:31:34.466Z,44.40
2023-05-01T17:34:01.192Z,19.77
2023-05-01T17:36:29.134Z,17.05
2023-05-01T17:38:56.293Z,33.47
2023-05-01T17:41:23.462Z,15.57
2023-05-01T17:43:50.165Z,11.20
2023-05-01T17:46:17.923Z,11.07
2023-05-01T17:48:44.814Z,12.02
2023-05-01T17:51:14.007Z,13.07
2023-05-01T17:54:00.104Z,13.70
2023-05-01T17:56:29.128Z,15.18
2023-05-01T17:58:55.890Z,12.27
2023-05-01T18:01:23.769Z,12.85
2023-05-01T18:03:53.756Z,12.30
2023-05-01T18:06:23.437Z,13.70
2023-05-01T18:08:50.328Z,13.55
2023-05-01T18:11:17.113Z,13.77
2023-05-01T18:13:47.179Z,14.90
2023-05-01T18:16:15.220Z,15.40
2023-05-01T18:18:42.116Z,14.82
2023-05-01T18:21:08.805Z,15.30
2023-05-01T18:23:36.470Z,16.73
2023-05-01T18:26:03.698Z,14.98
2023-05-01T18:28:30.772Z,15.45
2023-05-01T18:30:57.821Z,15.70
2023-05-01T18:33:24.618Z,15.60
2023-05-01T18:35:51.277Z,17.83
2023-05-01T18:38:21.275Z,17.73
2023-05-01T18:40:48.422Z,16.98
2023-05-01T18:43:15.644Z,15.82
2023-05-01T18:45:42.448Z,16.92
2023-05-01T18:48:09.149Z,17.38
2023-05-01T18:50:35.885Z,16.40
2023-05-01T18:53:02.738Z,16.67
2023-05-01T18:55:29.487Z,16.73
2023-05-01T18:57:56.642Z,15.80
2023-05-01T19:00:23.559Z,17.45
2023-05-01T19:02:52.012Z,17.25
2023-05-01T19:05:19.428Z,31.77
2023-05-01T19:07:46.475Z,20.73
2023-05-01T19:10:13.416Z,20.38
2023-05-01T19:12:41.230Z,31.23
2023-05-01T19:15:08.624Z,43.63
2023-05-01T19:17:35.236Z,50.25
2023-05-01T19:20:04.086Z,25.77
2023-05-01T19:22:33.754Z,27.33
2023-05-01T19:25:02.922Z,26.02
2023-05-01T19:27:29.576Z,21.05
2023-05-01T19:29:59.214Z,31.13
2023-05-01T19:32:28.173Z,20.77
2023-05-01T19:34:56.063Z,25.30
2023-05-01T19:37:22.717Z,21.88
2023-05-01T19:39:49.500Z,23.55
2023-05-01T19:42:16.285Z,20.52
2023-05-01T19:44:43.045Z,23.70
2023-05-01T19:47:09.732Z,26.70
2023-05-01T19:49:36.397Z,55.10
2023-05-01T19:52:03.330Z,25.75
2023-05-01T19:54:30.021Z,25.08
2023-05-01T19:56:57.004Z,27.27
2023-05-01T19:59:23.686Z,28.02
2023-05-01T20:01:50.707Z,30.17
2023-05-01T20:04:17.827Z,24.33
2023-05-01T20:06:44.758Z,24.20
2023-05-01T20:09:11.672Z,23.50
2023-05-01T20:11:38.399Z,21.95
2023-05-01T20:14:05.117Z,24.63
2023-05-01T20:16:31.897Z,21.27
2023-05-01T20:18:58.516Z,20.20
2023-05-01T20:21:25.654Z,19.25
2023-05-01T20:23:54.399Z,17.98
2023-05-01T20:26:21.227Z,19.30
2023-05-01T20:28:48.888Z,18.95
2023-05-01T20:31:15.722Z,20.20
2023-05-01T20:33:42.459Z,21.52
2023-05-01T20:36:09.128Z,22.23
2023-05-01T20:38:47.475Z,22.70
2023-05-01T20:41:14.826Z,20.13
2023-05-01T20:43:41.422Z,21.45
2023-05-01T20:46:08.187Z,19.50
2023-05-01T20:48:34.853Z,20.45
2023-05-01T20:51:01.636Z,20.90
2023-05-01T20:53:28.357Z,20.85
2023-05-01T20:55:55.371Z,21.45
2023-05-01T20:58:22.108Z,23.67
2023-05-01T21:00:50.961Z,24.00
2023-05-01T21:03:17.751Z,23.23
2023-05-01T21:05:44.430Z,24.95
2023-05-01T21:08:11.159Z,25.13
2023-05-01T21:10:37.832Z,25.38
2023-05-01T21:13:04.501Z,28.80
2023-05-01T21:15:32.049Z,26.52
2023-05-01T21:17:59.140Z,30.70
2023-05-01T21:20:34.852Z,27.20
2023-05-01T21:23:02.294Z,34.55
2023-05-01T21:25:31.637Z,25.50
2023-05-01T21:28:03.312Z,25.08
2023-05-01T21:30:33.473Z,29.73
2023-05-01T21:33:05.375Z,25.85
2023-05-01T21:35:32.725Z,20.25
2023-05-01T21:37:59.847Z,21.92
2023-05-01T21:40:27.129Z,37.13
2023-05-01T21:42:54.526Z,21.95
2023-05-01T21:45:21.448Z,32.03
2023-05-01T21:47:52.912Z,31.92
2023-05-01T21:50:21.190Z,22.38
2023-05-01T21:52:49.477Z,24.15
2023-05-01T21:55:25.427Z,22.45
2023-05-01T21:57:53.102Z,17.10
2023-05-01T22:00:22.862Z,26.85
2023-05-01T22:02:51.107Z,21.02
2023-05-01T22:05:22.557Z,24.92
2023-05-01T22:07:52.096Z,38.95
2023-05-01T22:10:22.671Z,21.75
2023-05-01T22:12:49.477Z,23.70
2023-05-01T22:15:16.693Z,23.05
2023-05-01T22:17:44.240Z,19.98
2023-05-01T22:20:11.435Z,23.77
2023-05-01T22:22:40.266Z,20.30
2023-05-01T22:25:08.245Z,18.00
2023-05-01T22:27:35.580Z,18.60
2023-05-01T22:30:03.449Z,21.50
2023-05-01T22:32:30.350Z,14.80
2023-05-01T22:34:57.096Z,15.65
2023-05-01T22:37:25.448Z,14.00
2023-05-01T22:39:53.227Z,14.05
2023-05-01T22:42:20.108Z,14.65
2023-05-01T22:44:46.968Z,13.98
2023-05-01T22:47:13.614Z,14.30
2023-05-01T22:49:40.213Z,13.60
2023-05-01T22:52:06.993Z,14.60
2023-05-01T22:54:33.595Z,14.40
2023-05-01T22:57:00.283Z,14.80
2023-05-01T22:59:27.022Z,14.75
2023-05-01T23:01:54.613Z,15.75
2023-05-01T23:04:21.516Z,14.73
2023-05-01T23:06:48.368Z,15.15
2023-05-01T23:09:15.663Z,16.95
2023-05-01T23:11:42.431Z,15.20
2023-05-01T23:14:09.701Z,16.20
2023-05-01T23:16:41.649Z,17.23
2023-05-01T23:19:21.566Z,18.10
2023-05-01T23:21:49.671Z,18.75
2023-05-01T23:24:18.250Z,19.52
2023-05-01T23:26:45.712Z,18.55
2023-05-01T23:29:18.339Z,18.50
2023-05-01T23:31:47.491Z,19.33
2023-05-01T23:34:17.749Z,18.88
2023-05-01T23:36:46.298Z,19.38
2023-05-01T23:39:13.397Z,19.83
2023-05-01T23:41:40.408Z,19.20
2023-05-01T23:44:07.768Z,17.90
2023-05-01T23:46:34.657Z,17.73
2023-05-01T23:49:04.515Z,17.63
2023-05-01T23:51:31.971Z,18.38
2023-05-01T23:53:59.025Z,16.55
2023-05-01T23:56:25.681Z,16.80
2023-05-01T23:58:52.390Z,16.70
